createdAt,value
2022-08-12T00:00:45.847Z,22.77
2022-08-12T00:03:31.006Z,22.74
2022-08-12T00:06:16.611Z,22.72
2022-08-12T00:09:02.075Z,22.76
2022-08-12T00:11:47.706Z,22.72
2022-08-12T00:14:34.513Z,22.73
2022-08-12T00:17:22.776Z,22.67
2022-08-12T00:20:08.599Z,22.65
2022-08-12T00:22:59.790Z,22.64
2022-08-12T00:26:21.126Z,22.61
2022-08-12T00:29:00.839Z,22.64
2022-08-12T00:31:47.518Z,22.66
2022-08-12T00:34:32.806Z,22.63
2022-08-12T00:37:17.981Z,22.64
2022-08-12T00:40:04.744Z,22.65
2022-08-12T00:42:39.069Z,22.64
2022-08-12T00:45:08.004Z,22.60
2022-08-12T00:47:37.308Z,22.63
2022-08-12T00:50:05.771Z,22.63
2022-08-12T00:52:34.496Z,22.54
2022-08-12T00:55:03.235Z,22.56
2022-08-12T00:57:32.480Z,22.58
2022-08-12T01:00:01.871Z,22.51
2022-08-12T01:02:30.822Z,22.48
2022-08-12T01:05:18.345Z,22.54
2022-08-12T01:08:04.602Z,22.51
2022-08-12T01:10:50.494Z,22.45
2022-08-12T01:13:20.387Z,22.45
2022-08-12T01:15:49.756Z,22.35
2022-08-12T01:18:17.813Z,22.36
2022-08-12T01:20:55.913Z,22.42
2022-08-12T01:23:50.314Z,22.36
2022-08-12T01:26:21.044Z,22.31
2022-08-12T01:28:50.262Z,22.33
2022-08-12T01:31:19.350Z,22.32
2022-08-12T01:33:52.242Z,22.31
2022-08-12T01:36:20.656Z,22.25
2022-08-12T01:38:49.134Z,22.31
2022-08-12T01:41:17.186Z,22.26
2022-08-12T01:43:47.129Z,22.23
2022-08-12T01:46:22.645Z,22.23
2022-08-12T01:49:00.995Z,22.18
2022-08-12T01:52:15.489Z,22.24
2022-08-12T01:54:27.395Z,22.11
2022-08-12T01:56:59.208Z,22.15
2022-08-12T01:59:50.224Z,22.01
2022-08-12T02:02:19.126Z,22.00
2022-08-12T02:05:23.950Z,22.02
2022-08-12T02:08:16.855Z,21.96
2022-08-12T02:11:08.334Z,21.99
2022-08-12T02:13:49.629Z,21.95
2022-08-12T02:16:30.493Z,21.87
2022-08-12T02:19:22.330Z,21.84
2022-08-12T02:21:54.784Z,21.79
2022-08-12T02:24:23.081Z,21.75
2022-08-12T02:26:51.900Z,21.70
2022-08-12T02:29:20.321Z,21.71
2022-08-12T02:31:49.852Z,21.62
2022-08-12T02:34:17.837Z,21.53
2022-08-12T02:36:45.908Z,21.53
2022-08-12T02:39:15.848Z,21.53
2022-08-12T02:41:44.630Z,21.50
2022-08-12T02:44:12.748Z,21.51
2022-08-12T02:46:40.949Z,21.43
2022-08-12T02:49:14.889Z,21.44
2022-08-12T02:51:44.277Z,21.41
2022-08-12T02:54:12.249Z,21.36
2022-08-12T02:56:41.748Z,21.26
2022-08-12T02:59:10.700Z,21.35
2022-08-12T03:01:42.595Z,21.28
2022-08-12T03:04:21.000Z,21.17
2022-08-12T03:06:52.325Z,21.17
2022-08-12T03:09:21.666Z,21.14
2022-08-12T03:11:59.501Z,21.12
2022-08-12T03:14:29.654Z,21.10
2022-08-12T03:17:03.826Z,21.02
2022-08-12T03:19:33.075Z,21.00
2022-08-12T03:22:13.129Z,21.00
2022-08-12T03:24:43.133Z,20.92
2022-08-12T03:27:13.147Z,20.96
2022-08-12T03:29:49.957Z,20.92
2022-08-12T03:32:36.371Z,20.85
2022-08-12T03:35:07.983Z,20.84
2022-08-12T03:37:36.290Z,20.80
2022-08-12T03:40:04.662Z,20.76
2022-08-12T03:42:35.413Z,20.78
2022-08-12T03:45:32.949Z,20.79
2022-08-12T03:48:21.513Z,20.76
2022-08-12T03:51:08.532Z,20.76
2022-08-12T03:53:54.148Z,20.69
2022-08-12T03:56:40.175Z,20.67
2022-08-12T03:59:25.692Z,20.65
2022-08-12T04:01:57.491Z,20.65
2022-08-12T04:04:26.216Z,20.63
2022-08-12T04:06:55.468Z,20.57
2022-08-12T04:09:23.593Z,20.61
2022-08-12T04:12:09.124Z,20.61
2022-08-12T04:14:37.784Z,20.56
2022-08-12T04:17:06.236Z,20.58
2022-08-12T04:19:34.366Z,20.52
2022-08-12T04:22:03.953Z,20.53
2022-08-12T04:24:35.373Z,20.54
2022-08-12T04:27:03.763Z,20.49
2022-08-12T04:30:31.656Z,20.54
2022-08-12T04:32:19.899Z,20.48
2022-08-12T04:34:48.480Z,20.54
2022-08-12T04:37:18.019Z,20.53
2022-08-12T04:39:46.137Z,20.60
2022-08-12T04:42:14.376Z,20.60
2022-08-12T04:44:43.406Z,20.66
2022-08-12T04:47:12.767Z,20.65
2022-08-12T04:49:40.839Z,20.62
2022-08-12T04:52:09.086Z,20.67
2022-08-12T04:54:38.552Z,20.66
2022-08-12T04:57:09.947Z,20.74
2022-08-12T04:59:48.230Z,20.75
2022-08-12T05:02:20.482Z,20.77
2022-08-12T05:04:49.931Z,20.83
2022-08-12T05:07:18.203Z,20.85
2022-08-12T05:10:00.247Z,20.88
2022-08-12T05:12:36.260Z,21.05
2022-08-12T05:15:12.784Z,21.03
2022-08-12T05:18:00.049Z,21.19
2022-08-12T05:20:45.847Z,21.21
2022-08-12T05:23:15.252Z,21.25
2022-08-12T05:25:45.491Z,21.33
2022-08-12T05:28:16.242Z,21.27
2022-08-12T05:30:44.577Z,21.43
2022-08-12T05:33:13.726Z,21.44
2022-08-12T05:35:43.346Z,21.57
2022-08-12T05:38:29.366Z,21.53
2022-08-12T05:40:59.631Z,21.69
2022-08-12T05:43:27.681Z,21.65
2022-08-12T05:45:56.231Z,21.75
2022-08-12T05:48:24.517Z,21.84
2022-08-12T05:50:53.236Z,21.85
2022-08-12T05:53:21.490Z,21.89
2022-08-12T05:55:49.468Z,22.00
2022-08-12T05:58:20.594Z,22.01
2022-08-12T06:00:49.053Z,22.12
2022-08-12T06:03:19.751Z,22.20
2022-08-12T06:05:55.006Z,22.26
2022-08-12T06:08:24.304Z,22.32
2022-08-12T06:10:52.335Z,22.36
2022-08-12T06:13:28.340Z,22.37
2022-08-12T06:16:10.028Z,22.50
2022-08-12T06:18:40.148Z,22.52
2022-08-12T06:21:08.747Z,22.61
2022-08-12T06:23:41.895Z,22.76
2022-08-12T06:26:11.649Z,22.77
2022-08-12T06:28:41.447Z,22.72
2022-08-12T06:31:25.380Z,22.81
2022-08-12T06:34:01.018Z,23.04
2022-08-12T06:36:43.325Z,23.09
2022-08-12T06:39:14.802Z,23.19
2022-08-12T06:42:02.686Z,23.13
2022-08-12T06:44:51.177Z,23.30
2022-08-12T06:47:19.833Z,23.32
2022-08-12T06:49:48.666Z,23.44
2022-08-12T06:52:17.312Z,23.56
2022-08-12T06:54:45.943Z,23.57
2022-08-12T06:57:58.115Z,23.65
2022-08-12T07:00:06.713Z,23.75
2022-08-12T07:02:37.196Z,23.81
2022-08-12T07:05:05.768Z,23.96
2022-08-12T07:07:33.708Z,24.09
2022-08-12T07:10:06.445Z,24.20
2022-08-12T07:12:36.944Z,24.33
2022-08-12T07:15:07.828Z,24.28
2022-08-12T07:17:37.790Z,24.32
2022-08-12T07:20:09.940Z,24.44
2022-08-12T07:22:39.369Z,24.47
2022-08-12T07:25:25.494Z,24.68
2022-08-12T07:27:55.004Z,24.74
2022-08-12T07:30:24.468Z,24.91
2022-08-12T07:32:53.142Z,25.02
2022-08-12T07:35:21.188Z,25.05
2022-08-12T07:37:50.734Z,25.14
2022-08-12T07:40:19.988Z,25.22
2022-08-12T07:42:47.904Z,25.23
2022-08-12T07:45:15.806Z,25.18
2022-08-12T07:47:45.152Z,25.30
2022-08-12T07:50:13.314Z,25.35
2022-08-12T07:52:43.015Z,25.56
2022-08-12T07:55:12.022Z,25.51
2022-08-12T07:57:50.286Z,25.60
2022-08-12T08:00:18.588Z,25.58
2022-08-12T08:02:49.408Z,25.48
2022-08-12T08:05:19.560Z,25.63
2022-08-12T08:07:47.767Z,25.86
2022-08-12T08:10:16.751Z,25.76
2022-08-12T08:12:58.699Z,26.00
2022-08-12T08:15:51.201Z,26.07
2022-08-12T08:18:26.730Z,26.08
2022-08-12T08:20:55.718Z,26.23
2022-08-12T08:23:43.759Z,26.19
2022-08-12T08:26:22.150Z,26.27
2022-08-12T08:28:50.928Z,26.24
2022-08-12T08:31:19.849Z,26.42
2022-08-12T08:34:05.103Z,26.51
2022-08-12T08:36:39.599Z,26.45
2022-08-12T08:39:08.656Z,26.71
2022-08-12T08:42:15.824Z,26.77
2022-08-12T08:44:43.734Z,26.74
2022-08-12T08:47:13.217Z,26.74
2022-08-12T08:49:45.866Z,26.61
2022-08-12T08:52:13.817Z,26.83
2022-08-12T08:55:05.040Z,26.72
2022-08-12T08:57:43.851Z,26.75
2022-08-12T09:00:15.441Z,26.89
2022-08-12T09:02:49.375Z,26.95
2022-08-12T09:05:28.610Z,26.96
2022-08-12T09:08:23.163Z,27.15
2022-08-12T09:14:10.420Z,26.92
2022-08-12T09:16:42.661Z,27.23
2022-08-12T09:19:27.228Z,27.19
2022-08-12T09:22:00.274Z,27.31
2022-08-12T09:24:28.371Z,27.10
2022-08-12T09:26:58.943Z,27.37
2022-08-12T09:30:11.125Z,27.52
2022-08-12T09:32:31.296Z,27.19
2022-08-12T09:35:18.533Z,27.36
2022-08-12T09:37:58.401Z,27.46
2022-08-12T09:42:07.800Z,27.65
2022-08-12T09:43:34.885Z,27.84
2022-08-12T09:46:14.314Z,27.77
2022-08-12T09:48:56.149Z,27.79
2022-08-12T09:51:37.618Z,27.83
2022-08-12T09:54:34.112Z,27.90
2022-08-12T09:58:07.888Z,27.93
2022-08-12T10:00:12.874Z,27.99
2022-08-12T10:02:45.763Z,28.16
2022-08-12T10:05:20.589Z,28.22
2022-08-12T10:07:48.820Z,28.16
2022-08-12T10:10:22.805Z,28.30
2022-08-12T10:13:13.604Z,28.42
2022-08-12T10:16:02.084Z,28.46
2022-08-12T10:18:35.694Z,28.29
2022-08-12T10:21:07.557Z,28.38
2022-08-12T10:23:40.079Z,28.44
2022-08-12T10:26:37.620Z,28.50
2022-08-12T10:30:39.037Z,28.58
2022-08-12T10:32:21.051Z,28.67
2022-08-12T10:34:53.679Z,28.63
2022-08-12T10:38:33.655Z,28.90
2022-08-12T10:40:28.757Z,28.89
2022-08-12T10:43:20.420Z,29.00
2022-08-12T10:45:53.604Z,28.55
2022-08-12T10:48:34.247Z,28.68
2022-08-12T10:52:04.740Z,28.78
2022-08-12T10:54:00.755Z,28.88
2022-08-12T10:56:34.289Z,28.73
2022-08-12T10:59:05.288Z,29.07
2022-08-12T11:04:17.793Z,29.05
2022-08-12T11:04:41.382Z,29.00
2022-08-12T11:08:33.907Z,29.08
2022-08-12T11:10:01.248Z,29.19
2022-08-12T11:12:54.770Z,29.38
2022-08-12T11:15:24.363Z,29.32
2022-08-12T11:18:18.332Z,29.30
2022-08-12T11:20:48.750Z,29.45
2022-08-12T11:23:24.917Z,29.30
2022-08-12T11:26:06.790Z,29.42
2022-08-12T11:28:37.691Z,29.42
2022-08-12T11:31:11.893Z,29.57
2022-08-12T11:34:06.825Z,29.68
2022-08-12T11:36:39.224Z,29.55
2022-08-12T11:39:12.388Z,29.58
2022-08-12T11:41:40.871Z,29.91
2022-08-12T11:44:36.271Z,30.11
2022-08-12T11:47:00.685Z,30.10
2022-08-12T11:49:32.759Z,30.03
2022-08-12T11:52:02.401Z,30.17
2022-08-12T11:54:31.040Z,30.36
2022-08-12T11:57:02.000Z,30.13
2022-08-12T12:02:21.462Z,30.42
2022-08-12T12:04:52.798Z,29.95
2022-08-12T12:07:34.050Z,30.26
2022-08-12T12:10:12.465Z,30.40
2022-08-12T12:12:41.411Z,30.36
2022-08-12T12:15:24.803Z,30.28
2022-08-12T12:17:55.638Z,30.30
2022-08-12T12:20:26.150Z,30.14
2022-08-12T12:22:58.731Z,30.09
2022-08-12T12:25:59.223Z,30.19
2022-08-12T12:28:36.797Z,30.34
2022-08-12T12:31:15.000Z,30.38
2022-08-12T12:33:58.328Z,30.38
2022-08-12T12:36:30.070Z,30.47
2022-08-12T12:39:00.024Z,30.35
2022-08-12T12:42:43.792Z,30.66
2022-08-12T12:44:25.824Z,30.69
2022-08-12T12:47:26.075Z,30.75
2022-08-12T12:49:54.800Z,30.73
2022-08-12T12:52:37.349Z,30.49
2022-08-12T12:55:06.760Z,30.82
2022-08-12T12:58:00.254Z,30.69
2022-08-12T13:00:29.049Z,30.96
2022-08-12T13:03:23.477Z,30.80
2022-08-12T13:05:53.922Z,31.06
2022-08-12T13:08:28.264Z,30.95
2022-08-12T13:11:05.070Z,31.02
2022-08-12T13:14:09.432Z,31.08
2022-08-12T13:16:21.780Z,30.88
2022-08-12T13:18:49.908Z,30.85
2022-08-12T13:21:33.200Z,31.14
2022-08-12T13:24:09.548Z,31.07
2022-08-12T13:26:40.762Z,30.86
2022-08-12T13:29:11.477Z,30.85
2022-08-12T13:31:46.467Z,31.11
2022-08-12T13:34:34.700Z,31.00
2022-08-12T13:37:09.765Z,31.10
2022-08-12T13:39:46.993Z,30.99
2022-08-12T13:42:17.859Z,30.85
2022-08-12T13:44:46.521Z,31.23
2022-08-12T13:47:19.857Z,31.33
2022-08-12T13:49:53.784Z,31.38
2022-08-12T13:52:24.308Z,31.37
2022-08-12T13:54:55.847Z,31.33
2022-08-12T13:57:26.708Z,31.01
2022-08-12T14:00:00.696Z,31.47
2022-08-12T14:02:29.730Z,31.34
2022-08-12T14:05:01.503Z,31.48
2022-08-12T14:07:48.782Z,31.76
2022-08-12T14:10:37.421Z,31.42
2022-08-12T14:13:10.456Z,31.34
2022-08-12T14:15:50.560Z,31.46
2022-08-12T14:18:20.072Z,31.52
2022-08-12T14:20:48.677Z,31.59
2022-08-12T14:24:05.745Z,31.93
2022-08-12T14:26:11.672Z,31.46
2022-08-12T14:28:40.040Z,31.67
2022-08-12T14:31:18.295Z,31.53
2022-08-12T14:33:48.441Z,31.76
2022-08-12T14:36:20.236Z,31.96
2022-08-12T14:38:52.563Z,31.95
2022-08-12T14:41:21.396Z,31.74
2022-08-12T14:44:04.625Z,31.92
2022-08-12T14:46:40.139Z,31.92
2022-08-12T14:50:00.605Z,31.82
2022-08-12T14:53:11.372Z,31.72
2022-08-12T14:57:57.204Z,31.85
2022-08-12T15:00:52.243Z,31.92
2022-08-12T15:03:23.339Z,31.94
2022-08-12T15:06:03.547Z,31.77
2022-08-12T15:08:35.830Z,31.79
2022-08-12T15:11:05.590Z,31.93
2022-08-12T15:13:39.608Z,32.05
2022-08-12T15:16:12.568Z,32.17
2022-08-12T15:18:55.030Z,32.13
2022-08-12T15:21:25.785Z,32.03
2022-08-12T15:24:13.713Z,32.02
2022-08-12T15:26:46.679Z,31.77
2022-08-12T15:29:18.473Z,31.82
2022-08-12T15:32:01.903Z,31.95
2022-08-12T15:34:33.439Z,31.93
2022-08-12T15:37:01.855Z,32.02
2022-08-12T15:39:29.855Z,31.51
2022-08-12T15:42:04.384Z,31.81
2022-08-12T15:44:37.739Z,31.78
2022-08-12T15:47:10.173Z,31.76
2022-08-12T15:49:43.115Z,31.85
2022-08-12T15:52:27.366Z,31.68
2022-08-12T15:54:58.918Z,31.88
2022-08-12T15:57:33.248Z,31.46
2022-08-12T16:00:07.090Z,31.57
2022-08-12T16:02:42.046Z,31.71
2022-08-12T16:06:11.213Z,31.67
2022-08-12T16:08:09.404Z,31.48
2022-08-12T16:13:34.152Z,31.34
2022-08-12T16:16:03.658Z,31.55
2022-08-12T16:18:33.970Z,31.45
2022-08-12T16:21:01.958Z,30.96
2022-08-12T16:23:51.158Z,31.17
2022-08-12T16:26:32.335Z,30.86
2022-08-12T16:29:15.199Z,30.87
2022-08-12T16:31:44.773Z,30.85
2022-08-12T16:34:25.825Z,30.85
2022-08-12T16:37:07.416Z,30.66
2022-08-12T16:40:00.404Z,30.60
2022-08-12T16:42:28.114Z,30.51
2022-08-12T16:45:02.229Z,30.29
2022-08-12T16:47:43.938Z,30.32
2022-08-12T16:50:22.136Z,30.08
2022-08-12T16:53:02.386Z,29.83
2022-08-12T16:55:38.104Z,29.96
2022-08-12T16:58:28.327Z,29.75
2022-08-12T17:01:02.071Z,29.87
2022-08-12T17:03:36.704Z,29.83
2022-08-12T17:06:22.102Z,29.89
2022-08-12T17:09:08.715Z,29.59
2022-08-12T17:11:46.887Z,29.49
2022-08-12T17:14:23.117Z,29.44
2022-08-12T17:16:56.023Z,29.46
2022-08-12T17:20:29.372Z,29.34
2022-08-12T17:22:15.508Z,29.21
2022-08-12T17:24:54.686Z,29.20
2022-08-12T17:27:26.341Z,29.03
2022-08-12T17:30:01.524Z,29.06
2022-08-12T17:32:33.699Z,28.98
2022-08-12T17:35:19.872Z,28.95
2022-08-12T17:37:48.938Z,28.94
2022-08-12T17:40:36.293Z,28.71
2022-08-12T17:43:57.832Z,28.80
2022-08-12T17:45:58.906Z,28.69
2022-08-12T17:48:34.454Z,28.60
2022-08-12T17:51:07.098Z,28.46
2022-08-12T17:54:06.199Z,28.51
2022-08-12T17:56:31.907Z,28.46
2022-08-12T17:59:00.472Z,28.40
2022-08-12T18:01:29.389Z,28.44
2022-08-12T18:04:21.943Z,28.41
2022-08-12T18:06:52.287Z,28.19
2022-08-12T18:09:21.163Z,28.16
2022-08-12T18:12:08.374Z,28.08
2022-08-12T18:14:37.967Z,27.99
2022-08-12T18:17:09.500Z,27.83
2022-08-12T18:20:05.694Z,27.84
2022-08-12T18:22:30.818Z,27.67
2022-08-12T18:26:13.237Z,27.72
2022-08-12T18:28:15.671Z,27.70
2022-08-12T18:30:52.588Z,27.60
2022-08-12T18:33:25.526Z,27.57
2022-08-12T18:35:59.714Z,27.43
2022-08-12T18:38:30.409Z,27.44
2022-08-12T18:41:21.089Z,27.35
2022-08-12T18:43:59.235Z,27.19
2022-08-12T18:46:33.928Z,27.17
2022-08-12T18:49:18.058Z,27.21
2022-08-12T18:51:55.475Z,27.19
2022-08-12T18:54:32.324Z,26.93
2022-08-12T18:57:16.332Z,26.78
2022-08-12T18:59:59.697Z,26.74
2022-08-12T19:02:33.011Z,26.73
2022-08-12T19:05:10.819Z,26.56
2022-08-12T19:08:38.307Z,26.53
2022-08-12T19:14:42.163Z,26.14
2022-08-12T19:17:11.553Z,26.11
2022-08-12T19:19:41.541Z,25.97
2022-08-12T19:22:10.506Z,25.81
2022-08-12T19:24:57.474Z,25.74
2022-08-12T19:27:25.466Z,25.78
2022-08-12T19:30:06.954Z,25.58
2022-08-12T19:32:37.346Z,25.56
2022-08-12T19:35:58.997Z,25.55
2022-08-12T19:38:03.701Z,25.40
2022-08-12T19:40:37.343Z,25.18
2022-08-12T19:43:13.459Z,25.05
2022-08-12T19:45:50.530Z,25.17
2022-08-12T19:48:19.815Z,25.04
2022-08-12T19:50:50.175Z,25.08
2022-08-12T19:53:20.209Z,25.01
2022-08-12T19:55:53.349Z,24.86
2022-08-12T19:58:21.689Z,24.60
2022-08-12T20:00:53.436Z,24.68
2022-08-12T20:03:38.717Z,24.73
2022-08-12T20:06:15.720Z,24.64
2022-08-12T20:08:56.073Z,24.63
2022-08-12T20:12:13.644Z,24.51
2022-08-12T20:14:50.018Z,24.42
2022-08-12T20:35:11.695Z,24.06
2022-08-12T20:38:04.973Z,23.99
2022-08-12T20:40:38.056Z,23.96
2022-08-12T20:43:06.865Z,23.94
2022-08-12T20:45:44.787Z,23.96
2022-08-12T20:48:26.164Z,23.92
2022-08-12T20:50:58.014Z,23.86
2022-08-12T20:53:58.260Z,23.86
2022-08-12T20:56:30.692Z,23.67
2022-08-12T20:59:01.434Z,23.77
2022-08-12T21:01:46.593Z,23.67
2022-08-12T21:04:35.543Z,23.68
2022-08-12T21:07:09.254Z,23.65
2022-08-12T21:09:41.498Z,23.59
2022-08-12T21:12:27.741Z,23.59
2022-08-12T21:15:17.037Z,23.50
2022-08-12T21:18:01.148Z,23.45
2022-08-12T21:20:38.641Z,23.48
2022-08-12T21:23:07.591Z,23.49
2022-08-12T21:25:35.845Z,23.46
2022-08-12T21:28:13.124Z,23.37
2022-08-12T21:31:11.136Z,23.29
2022-08-12T21:33:32.086Z,23.27
2022-08-12T21:36:22.857Z,23.15
2022-08-12T21:39:02.067Z,23.22
2022-08-12T21:41:50.060Z,23.21
2022-08-12T21:44:32.470Z,23.24
2022-08-12T21:47:20.529Z,23.23
2022-08-12T21:49:55.186Z,23.18
2022-08-12T21:52:28.311Z,23.13
2022-08-12T21:55:03.897Z,23.20
2022-08-12T21:57:50.819Z,23.13
2022-08-12T22:00:23.958Z,23.18
2022-08-12T22:03:54.956Z,23.10
2022-08-12T22:06:42.605Z,23.21
2022-08-12T22:09:16.976Z,23.17
2022-08-12T22:11:56.146Z,23.13
2022-08-12T22:14:25.448Z,23.12
2022-08-12T22:16:54.352Z,23.10
2022-08-12T22:19:22.785Z,23.13
2022-08-12T22:21:53.617Z,23.16
2022-08-12T22:24:26.348Z,23.15
2022-08-12T22:26:57.890Z,23.07
2022-08-12T22:29:43.326Z,23.14
2022-08-12T22:32:12.042Z,23.00
2022-08-12T22:34:40.635Z,22.96
2022-08-12T22:37:20.158Z,22.96
2022-08-12T22:39:49.798Z,22.91
2022-08-12T22:42:37.279Z,22.91
2022-08-12T22:45:25.086Z,22.91
2022-08-12T22:47:56.441Z,22.89
2022-08-12T22:50:29.410Z,22.82
2022-08-12T22:53:15.646Z,22.74
2022-08-12T22:55:59.667Z,22.77
2022-08-12T22:58:40.292Z,22.80
2022-08-12T23:01:11.217Z,22.68
2022-08-12T23:03:49.580Z,22.70
2022-08-12T23:06:19.965Z,22.61
2022-08-12T23:08:48.407Z,22.63
2022-08-12T23:11:23.199Z,22.70
2022-08-12T23:13:55.470Z,22.58
2022-08-12T23:16:29.164Z,22.59
2022-08-12T23:19:09.256Z,22.61
2022-08-12T23:21:40.237Z,22.60
2022-08-12T23:24:10.103Z,22.57
2022-08-12T23:26:57.784Z,22.60
2022-08-12T23:29:42.653Z,22.57
2022-08-12T23:32:13.484Z,22.58
2022-08-12T23:35:03.508Z,22.52
2022-08-12T23:37:47.673Z,22.54
2022-08-12T23:40:22.147Z,22.54
2022-08-12T23:42:52.047Z,22.57
2022-08-12T23:45:30.622Z,22.45
2022-08-12T23:48:00.052Z,22.59
2022-08-12T23:50:34.372Z,22.47
2022-08-12T23:53:05.809Z,22.46
2022-08-12T23:55:40.466Z,22.43
2022-08-12T23:58:20.571Z,22.52
